Terminal Aerodrome Forecast
Issued by NWS

Home | Current Version | Previous Version | Text Only | Print | Product List | Glossary On
Versions: 1 2 3 4 5 6 7 8 9 10 11 12 13 14 15 16 17 18
000
FTUS41 KBGM 041120
TAFRME
TAF
KRME 041120Z 0412/0512 10003KT P6SM FEW080
     FM041500 25010G20KT P6SM FEW080
     FM050200 31005KT P6SM OVC050
      TEMPO 0506/0510 -SHRA=

USA.gov is the U.S. government's official web portal to all federal, state and local government web resources and services.